Terminal Aerodrome Forecast
Issued by NWS

Current Version | Previous Version | Graphics & Text | Print | Product List | Glossary On
Versions: 1 2 3 4 5 6 7 8 9 10 11 12 13 14 15 16 17 18 19 20 21
000
FTUS41 KILN 241000 AAE
TAFLUK
TAF AMD
KLUK 241004Z 2410/2506 00000KT 5SM BR BKN035
      TEMPO 2410/2412 2SM BR
     FM241300 04003KT P6SM SCT040 BKN200
     FM250000 08004KT P6SM BKN200=

USA.gov is the U.S. government's official web portal to all federal, state and local government web resources and services.